sensor_id;sensor_type;location;lat;lon;timestamp;temperature;humidity
4209;DHT22;36320;48.860;2.380;2023-04-25T00:02:18;13.70;73.70
4209;DHT22;36320;48.860;2.380;2023-04-25T00:04:44;13.60;73.60
4209;DHT22;36320;48.860;2.380;2023-04-25T00:07:10;13.40;73.50
4209;DHT22;36320;48.860;2.380;2023-04-25T00:09:36;13.30;73.60
4209;DHT22;36320;48.860;2.380;2023-04-25T00:12:02;13.40;73.60
4209;DHT22;36320;48.860;2.380;2023-04-25T00:14:29;13.30;73.60
4209;DHT22;36320;48.860;2.380;2023-04-25T00:16:54;13.20;73.70
4209;DHT22;36320;48.860;2.380;2023-04-25T00:19:20;13.40;73.80
4209;DHT22;36320;48.860;2.380;2023-04-25T00:21:46;13.40;73.70
4209;DHT22;36320;48.860;2.380;2023-04-25T00:24:12;13.10;73.70
4209;DHT22;36320;48.860;2.380;2023-04-25T00:26:38;13.20;73.90
4209;DHT22;36320;48.860;2.380;2023-04-25T00:29:04;13.20;74.10
4209;DHT22;36320;48.860;2.380;2023-04-25T00:31:30;13.20;74.30
4209;DHT22;36320;48.860;2.380;2023-04-25T00:33:55;13.10;74.30
4209;DHT22;36320;48.860;2.380;2023-04-25T00:36:26;13.10;74.30
4209;DHT22;36320;48.860;2.380;2023-04-25T00:38:53;13.00;74.80
4209;DHT22;36320;48.860;2.380;2023-04-25T00:41:20;13.00;74.50
4209;DHT22;36320;48.860;2.380;2023-04-25T00:43:46;12.90;74.60
4209;DHT22;36320;48.860;2.380;2023-04-25T00:46:13;12.90;74.60
4209;DHT22;36320;48.860;2.380;2023-04-25T00:48:38;13.00;74.60
4209;DHT22;36320;48.860;2.380;2023-04-25T00:51:04;13.10;74.70
4209;DHT22;36320;48.860;2.380;2023-04-25T00:53:30;13.00;74.60
4209;DHT22;36320;48.860;2.380;2023-04-25T00:55:57;13.00;74.80
4209;DHT22;36320;48.860;2.380;2023-04-25T00:58:24;12.90;74.90
4209;DHT22;36320;48.860;2.380;2023-04-25T01:00:51;13.10;75.20
4209;DHT22;36320;48.860;2.380;2023-04-25T01:03:18;13.10;74.90
4209;DHT22;36320;48.860;2.380;2023-04-25T01:05:45;13.10;74.70
4209;DHT22;36320;48.860;2.380;2023-04-25T01:08:12;13.10;74.80
4209;DHT22;36320;48.860;2.380;2023-04-25T01:10:38;13.00;74.90
4209;DHT22;36320;48.860;2.380;2023-04-25T01:13:04;13.00;75.00
4209;DHT22;36320;48.860;2.380;2023-04-25T01:15:30;12.90;74.90
4209;DHT22;36320;48.860;2.380;2023-04-25T01:17:57;12.80;75.00
4209;DHT22;36320;48.860;2.380;2023-04-25T01:20:24;12.80;75.20
4209;DHT22;36320;48.860;2.380;2023-04-25T01:22:53;12.80;75.00
4209;DHT22;36320;48.860;2.380;2023-04-25T01:25:19;12.80;74.90
4209;DHT22;36320;48.860;2.380;2023-04-25T01:27:49;12.70;74.90
4209;DHT22;36320;48.860;2.380;2023-04-25T01:30:19;12.60;75.10
4209;DHT22;36320;48.860;2.380;2023-04-25T01:32:45;12.70;75.30
4209;DHT22;36320;48.860;2.380;2023-04-25T01:35:12;12.70;75.30
4209;DHT22;36320;48.860;2.380;2023-04-25T01:37:43;12.70;75.50
4209;DHT22;36320;48.860;2.380;2023-04-25T01:40:09;12.60;75.70
4209;DHT22;36320;48.860;2.380;2023-04-25T01:42:39;12.50;76.10
4209;DHT22;36320;48.860;2.380;2023-04-25T01:45:05;12.40;76.20
4209;DHT22;36320;48.860;2.380;2023-04-25T01:47:31;12.60;76.30
4209;DHT22;36320;48.860;2.380;2023-04-25T01:49:57;12.60;76.50
4209;DHT22;36320;48.860;2.380;2023-04-25T01:52:23;12.50;76.40
4209;DHT22;36320;48.860;2.380;2023-04-25T01:54:50;12.50;76.70
4209;DHT22;36320;48.860;2.380;2023-04-25T01:57:16;12.50;76.80
4209;DHT22;36320;48.860;2.380;2023-04-25T01:59:42;12.50;76.90
4209;DHT22;36320;48.860;2.380;2023-04-25T02:02:08;12.50;77.00
4209;DHT22;36320;48.860;2.380;2023-04-25T02:04:34;12.50;77.00
4209;DHT22;36320;48.860;2.380;2023-04-25T02:07:00;12.50;76.90
4209;DHT22;36320;48.860;2.380;2023-04-25T02:09:25;12.50;76.80
4209;DHT22;36320;48.860;2.380;2023-04-25T02:11:52;12.50;77.00
4209;DHT22;36320;48.860;2.380;2023-04-25T02:14:18;12.50;76.80
4209;DHT22;36320;48.860;2.380;2023-04-25T02:16:43;12.50;76.90
4209;DHT22;36320;48.860;2.380;2023-04-25T02:19:10;12.50;76.80
4209;DHT22;36320;48.860;2.380;2023-04-25T02:21:36;12.50;76.90
4209;DHT22;36320;48.860;2.380;2023-04-25T02:24:02;12.50;76.90
4209;DHT22;36320;48.860;2.380;2023-04-25T02:26:28;12.50;76.90
4209;DHT22;36320;48.860;2.380;2023-04-25T02:28:56;12.40;76.90
4209;DHT22;36320;48.860;2.380;2023-04-25T02:31:22;12.30;76.90
4209;DHT22;36320;48.860;2.380;2023-04-25T02:33:48;12.40;77.10
4209;DHT22;36320;48.860;2.380;2023-04-25T02:36:14;12.40;77.20
4209;DHT22;36320;48.860;2.380;2023-04-25T02:38:40;12.60;77.20
4209;DHT22;36320;48.860;2.380;2023-04-25T02:41:06;12.60;77.00
4209;DHT22;36320;48.860;2.380;2023-04-25T02:43:32;12.70;77.00
4209;DHT22;36320;48.860;2.380;2023-04-25T02:45:58;12.80;76.80
4209;DHT22;36320;48.860;2.380;2023-04-25T02:48:23;12.60;76.40
4209;DHT22;36320;48.860;2.380;2023-04-25T02:50:49;12.40;76.80
4209;DHT22;36320;48.860;2.380;2023-04-25T02:53:15;12.50;76.80
4209;DHT22;36320;48.860;2.380;2023-04-25T02:55:40;12.50;76.80
4209;DHT22;36320;48.860;2.380;2023-04-25T02:58:06;12.50;76.90
4209;DHT22;36320;48.860;2.380;2023-04-25T03:00:32;12.50;77.80
4209;DHT22;36320;48.860;2.380;2023-04-25T03:02:58;12.30;77.00
4209;DHT22;36320;48.860;2.380;2023-04-25T03:05:24;12.40;77.30
4209;DHT22;36320;48.860;2.380;2023-04-25T03:07:49;12.40;77.40
4209;DHT22;36320;48.860;2.380;2023-04-25T03:10:15;12.40;77.50
4209;DHT22;36320;48.860;2.380;2023-04-25T03:12:41;12.40;77.40
4209;DHT22;36320;48.860;2.380;2023-04-25T03:15:06;12.30;77.40
4209;DHT22;36320;48.860;2.380;2023-04-25T03:17:32;12.40;77.40
4209;DHT22;36320;48.860;2.380;2023-04-25T03:19:58;12.40;77.20
4209;DHT22;36320;48.860;2.380;2023-04-25T03:22:24;12.30;77.40
4209;DHT22;36320;48.860;2.380;2023-04-25T03:24:50;12.30;77.50
4209;DHT22;36320;48.860;2.380;2023-04-25T03:27:16;12.30;77.40
4209;DHT22;36320;48.860;2.380;2023-04-25T03:29:42;12.40;77.70
4209;DHT22;36320;48.860;2.380;2023-04-25T03:32:08;12.40;77.60
4209;DHT22;36320;48.860;2.380;2023-04-25T03:34:33;12.40;77.50
4209;DHT22;36320;48.860;2.380;2023-04-25T03:36:59;12.30;77.50
4209;DHT22;36320;48.860;2.380;2023-04-25T03:39:25;12.30;77.80
4209;DHT22;36320;48.860;2.380;2023-04-25T03:41:51;12.30;77.90
4209;DHT22;36320;48.860;2.380;2023-04-25T03:44:16;12.30;77.80
4209;DHT22;36320;48.860;2.380;2023-04-25T03:46:42;12.60;77.80
4209;DHT22;36320;48.860;2.380;2023-04-25T03:49:08;12.30;77.50
4209;DHT22;36320;48.860;2.380;2023-04-25T03:51:34;12.20;77.50
4209;DHT22;36320;48.860;2.380;2023-04-25T03:53:59;12.20;77.70
4209;DHT22;36320;48.860;2.380;2023-04-25T03:56:25;12.20;77.90
4209;DHT22;36320;48.860;2.380;2023-04-25T03:58:51;12.30;77.80
4209;DHT22;36320;48.860;2.380;2023-04-25T04:01:16;12.30;78.00
4209;DHT22;36320;48.860;2.380;2023-04-25T04:03:42;12.40;77.80
4209;DHT22;36320;48.860;2.380;2023-04-25T04:06:08;12.50;77.70
4209;DHT22;36320;48.860;2.380;2023-04-25T04:08:34;12.60;78.40
4209;DHT22;36320;48.860;2.380;2023-04-25T04:11:00;12.80;77.60
4209;DHT22;36320;48.860;2.380;2023-04-25T04:13:26;12.70;77.00
4209;DHT22;36320;48.860;2.380;2023-04-25T04:15:52;12.70;76.80
4209;DHT22;36320;48.860;2.380;2023-04-25T04:18:18;12.60;77.00
4209;DHT22;36320;48.860;2.380;2023-04-25T04:20:44;12.50;77.10
4209;DHT22;36320;48.860;2.380;2023-04-25T04:23:10;12.50;77.40
4209;DHT22;36320;48.860;2.380;2023-04-25T04:25:36;12.50;77.50
4209;DHT22;36320;48.860;2.380;2023-04-25T04:28:02;12.60;77.60
4209;DHT22;36320;48.860;2.380;2023-04-25T04:30:28;12.70;77.40
4209;DHT22;36320;48.860;2.380;2023-04-25T04:32:57;12.60;77.10
4209;DHT22;36320;48.860;2.380;2023-04-25T04:35:24;12.50;77.10
4209;DHT22;36320;48.860;2.380;2023-04-25T04:37:50;12.50;77.30
4209;DHT22;36320;48.860;2.380;2023-04-25T04:40:17;12.50;77.30
4209;DHT22;36320;48.860;2.380;2023-04-25T04:42:43;12.30;78.00
4209;DHT22;36320;48.860;2.380;2023-04-25T04:45:11;12.40;77.50
4209;DHT22;36320;48.860;2.380;2023-04-25T04:47:38;12.40;77.50
4209;DHT22;36320;48.860;2.380;2023-04-25T04:50:06;12.50;77.60
4209;DHT22;36320;48.860;2.380;2023-04-25T04:52:34;12.40;77.60
4209;DHT22;36320;48.860;2.380;2023-04-25T04:55:01;12.40;77.90
4209;DHT22;36320;48.860;2.380;2023-04-25T04:57:28;12.60;78.10
4209;DHT22;36320;48.860;2.380;2023-04-25T04:59:53;12.80;78.60
4209;DHT22;36320;48.860;2.380;2023-04-25T05:02:19;12.80;77.80
4209;DHT22;36320;48.860;2.380;2023-04-25T05:04:45;12.70;77.60
4209;DHT22;36320;48.860;2.380;2023-04-25T05:07:11;12.60;77.50
4209;DHT22;36320;48.860;2.380;2023-04-25T05:09:37;12.70;77.60
4209;DHT22;36320;48.860;2.380;2023-04-25T05:12:03;12.60;77.60
4209;DHT22;36320;48.860;2.380;2023-04-25T05:14:29;12.50;77.50
4209;DHT22;36320;48.860;2.380;2023-04-25T05:16:54;12.60;77.50
4209;DHT22;36320;48.860;2.380;2023-04-25T05:19:20;12.60;77.50
4209;DHT22;36320;48.860;2.380;2023-04-25T05:21:46;12.70;77.60
4209;DHT22;36320;48.860;2.380;2023-04-25T05:24:11;12.60;77.50
4209;DHT22;36320;48.860;2.380;2023-04-25T05:26:38;12.60;77.20
4209;DHT22;36320;48.860;2.380;2023-04-25T05:29:03;12.80;77.40
4209;DHT22;36320;48.860;2.380;2023-04-25T05:31:29;12.90;77.40
4209;DHT22;36320;48.860;2.380;2023-04-25T05:33:55;12.70;77.10
4209;DHT22;36320;48.860;2.380;2023-04-25T05:36:21;12.50;77.30
4209;DHT22;36320;48.860;2.380;2023-04-25T05:38:48;12.40;77.50
4209;DHT22;36320;48.860;2.380;2023-04-25T05:41:13;12.50;77.80
4209;DHT22;36320;48.860;2.380;2023-04-25T05:43:39;12.60;77.70
4209;DHT22;36320;48.860;2.380;2023-04-25T05:46:10;12.70;77.80
4209;DHT22;36320;48.860;2.380;2023-04-25T05:48:37;12.60;77.50
4209;DHT22;36320;48.860;2.380;2023-04-25T05:51:03;12.70;77.70
4209;DHT22;36320;48.860;2.380;2023-04-25T05:53:28;12.90;77.70
4209;DHT22;36320;48.860;2.380;2023-04-25T05:55:54;13.10;77.50
4209;DHT22;36320;48.860;2.380;2023-04-25T05:58:20;13.10;77.10
4209;DHT22;36320;48.860;2.380;2023-04-25T06:00:46;13.10;77.20
4209;DHT22;36320;48.860;2.380;2023-04-25T06:03:12;13.10;77.10
4209;DHT22;36320;48.860;2.380;2023-04-25T06:05:42;12.80;77.00
4209;DHT22;36320;48.860;2.380;2023-04-25T06:08:10;12.60;77.20
4209;DHT22;36320;48.860;2.380;2023-04-25T06:10:36;12.50;77.50
4209;DHT22;36320;48.860;2.380;2023-04-25T06:13:03;12.70;78.10
4209;DHT22;36320;48.860;2.380;2023-04-25T06:15:29;12.70;77.90
4209;DHT22;36320;48.860;2.380;2023-04-25T06:17:55;12.70;77.50
4209;DHT22;36320;48.860;2.380;2023-04-25T06:20:21;12.70;77.50
4209;DHT22;36320;48.860;2.380;2023-04-25T06:22:49;12.50;77.30
4209;DHT22;36320;48.860;2.380;2023-04-25T06:25:15;12.50;77.90
4209;DHT22;36320;48.860;2.380;2023-04-25T06:27:41;12.70;77.70
4209;DHT22;36320;48.860;2.380;2023-04-25T06:30:07;12.70;77.10
4209;DHT22;36320;48.860;2.380;2023-04-25T06:32:33;12.90;77.00
4209;DHT22;36320;48.860;2.380;2023-04-25T06:35:00;13.00;76.50
4209;DHT22;36320;48.860;2.380;2023-04-25T06:37:26;13.10;76.50
4209;DHT22;36320;48.860;2.380;2023-04-25T06:39:51;13.40;76.40
4209;DHT22;36320;48.860;2.380;2023-04-25T06:42:17;13.30;75.80
4209;DHT22;36320;48.860;2.380;2023-04-25T06:44:43;13.30;75.60
4209;DHT22;36320;48.860;2.380;2023-04-25T06:47:09;13.50;75.60
4209;DHT22;36320;48.860;2.380;2023-04-25T06:49:34;13.60;75.20
4209;DHT22;36320;48.860;2.380;2023-04-25T06:52:00;13.30;74.80
4209;DHT22;36320;48.860;2.380;2023-04-25T06:54:26;13.40;75.20
4209;DHT22;36320;48.860;2.380;2023-04-25T06:56:54;13.50;75.00
4209;DHT22;36320;48.860;2.380;2023-04-25T06:59:20;13.30;74.40
4209;DHT22;36320;48.860;2.380;2023-04-25T07:01:45;13.10;74.80
4209;DHT22;36320;48.860;2.380;2023-04-25T07:04:11;13.40;75.30
4209;DHT22;36320;48.860;2.380;2023-04-25T07:06:38;13.60;74.90
4209;DHT22;36320;48.860;2.380;2023-04-25T07:09:08;13.70;74.10
4209;DHT22;36320;48.860;2.380;2023-04-25T07:11:35;13.70;73.50
4209;DHT22;36320;48.860;2.380;2023-04-25T07:14:02;13.20;73.40
4209;DHT22;36320;48.860;2.380;2023-04-25T07:16:27;13.20;74.00
4209;DHT22;36320;48.860;2.380;2023-04-25T07:18:53;13.50;74.10
4209;DHT22;36320;48.860;2.380;2023-04-25T07:21:19;13.60;74.50
4209;DHT22;36320;48.860;2.380;2023-04-25T07:23:44;13.30;73.70
4209;DHT22;36320;48.860;2.380;2023-04-25T07:26:10;13.40;73.80
4209;DHT22;36320;48.860;2.380;2023-04-25T07:28:36;13.40;73.50
4209;DHT22;36320;48.860;2.380;2023-04-25T07:31:05;13.20;73.40
4209;DHT22;36320;48.860;2.380;2023-04-25T07:33:30;13.10;73.50
4209;DHT22;36320;48.860;2.380;2023-04-25T07:35:56;13.00;73.50
4209;DHT22;36320;48.860;2.380;2023-04-25T07:38:22;13.00;73.70
4209;DHT22;36320;48.860;2.380;2023-04-25T07:40:48;13.30;74.50
4209;DHT22;36320;48.860;2.380;2023-04-25T07:43:14;12.80;74.40
4209;DHT22;36320;48.860;2.380;2023-04-25T07:45:43;12.90;74.30
4209;DHT22;36320;48.860;2.380;2023-04-25T07:48:09;13.00;74.30
4209;DHT22;36320;48.860;2.380;2023-04-25T07:50:34;13.10;74.10
4209;DHT22;36320;48.860;2.380;2023-04-25T07:53:00;13.10;73.70
4209;DHT22;36320;48.860;2.380;2023-04-25T07:55:26;13.10;73.40
4209;DHT22;36320;48.860;2.380;2023-04-25T07:57:52;13.20;73.40
4209;DHT22;36320;48.860;2.380;2023-04-25T08:00:18;13.30;72.90
4209;DHT22;36320;48.860;2.380;2023-04-25T08:02:43;13.30;72.40
4209;DHT22;36320;48.860;2.380;2023-04-25T08:05:09;13.50;72.50
4209;DHT22;36320;48.860;2.380;2023-04-25T08:07:39;13.80;71.80
4209;DHT22;36320;48.860;2.380;2023-04-25T08:10:06;13.90;71.20
4209;DHT22;36320;48.860;2.380;2023-04-25T08:12:32;14.10;70.80
4209;DHT22;36320;48.860;2.380;2023-04-25T08:14:58;14.10;70.30
4209;DHT22;36320;48.860;2.380;2023-04-25T08:17:24;14.00;69.80
4209;DHT22;36320;48.860;2.380;2023-04-25T08:19:49;14.20;69.50
4209;DHT22;36320;48.860;2.380;2023-04-25T08:22:16;14.20;68.70
4209;DHT22;36320;48.860;2.380;2023-04-25T08:24:41;14.30;68.40
4209;DHT22;36320;48.860;2.380;2023-04-25T08:27:07;14.60;67.60
4209;DHT22;36320;48.860;2.380;2023-04-25T08:29:33;15.00;67.40
4209;DHT22;36320;48.860;2.380;2023-04-25T08:31:59;15.30;67.00
4209;DHT22;36320;48.860;2.380;2023-04-25T08:34:25;15.30;66.50
4209;DHT22;36320;48.860;2.380;2023-04-25T08:36:51;15.40;65.80
4209;DHT22;36320;48.860;2.380;2023-04-25T08:39:17;15.10;65.20
4209;DHT22;36320;48.860;2.380;2023-04-25T08:41:43;15.00;65.00
4209;DHT22;36320;48.860;2.380;2023-04-25T08:44:12;14.90;65.10
4209;DHT22;36320;48.860;2.380;2023-04-25T08:46:39;14.80;65.30
4209;DHT22;36320;48.860;2.380;2023-04-25T08:49:07;14.70;65.20
4209;DHT22;36320;48.860;2.380;2023-04-25T08:51:33;14.60;65.30
4209;DHT22;36320;48.860;2.380;2023-04-25T08:54:19;14.60;65.40
4209;DHT22;36320;48.860;2.380;2023-04-25T08:56:48;14.40;65.10
4209;DHT22;36320;48.860;2.380;2023-04-25T08:59:14;14.30;65.30
4209;DHT22;36320;48.860;2.380;2023-04-25T09:01:40;14.00;65.40
4209;DHT22;36320;48.860;2.380;2023-04-25T09:04:06;14.20;65.90
4209;DHT22;36320;48.860;2.380;2023-04-25T09:06:32;14.50;65.80
4209;DHT22;36320;48.860;2.380;2023-04-25T09:09:05;15.00;65.80
4209;DHT22;36320;48.860;2.380;2023-04-25T09:11:32;15.10;64.90
4209;DHT22;36320;48.860;2.380;2023-04-25T09:14:15;15.10;64.70
4209;DHT22;36320;48.860;2.380;2023-04-25T09:19:26;14.80;64.20
4209;DHT22;36320;48.860;2.380;2023-04-25T09:21:55;14.90;64.50
4209;DHT22;36320;48.860;2.380;2023-04-25T09:24:37;15.00;64.50
4209;DHT22;36320;48.860;2.380;2023-04-25T09:27:08;13.70;62.60
4209;DHT22;36320;48.860;2.380;2023-04-25T09:29:35;15.20;64.20
4209;DHT22;36320;48.860;2.380;2023-04-25T09:32:20;15.10;64.10
4209;DHT22;36320;48.860;2.380;2023-04-25T09:34:54;15.30;63.90
4209;DHT22;36320;48.860;2.380;2023-04-25T09:37:21;15.30;63.30
4209;DHT22;36320;48.860;2.380;2023-04-25T09:39:53;15.30;63.20
4209;DHT22;36320;48.860;2.380;2023-04-25T09:42:25;15.30;64.20
4209;DHT22;36320;48.860;2.380;2023-04-25T09:44:54;15.30;63.10
4209;DHT22;36320;48.860;2.380;2023-04-25T09:47:20;15.30;63.10
4209;DHT22;36320;48.860;2.380;2023-04-25T09:49:47;14.90;62.40
4209;DHT22;36320;48.860;2.380;2023-04-25T09:52:21;14.70;63.20
4209;DHT22;36320;48.860;2.380;2023-04-25T09:54:48;14.50;63.40
4209;DHT22;36320;48.860;2.380;2023-04-25T09:57:15;14.60;63.60
4209;DHT22;36320;48.860;2.380;2023-04-25T10:02:12;15.40;63.30
4209;DHT22;36320;48.860;2.380;2023-04-25T10:04:38;15.90;62.50
4209;DHT22;36320;48.860;2.380;2023-04-25T10:07:08;15.90;61.50
4209;DHT22;36320;48.860;2.380;2023-04-25T10:09:37;15.50;61.30
4209;DHT22;36320;48.860;2.380;2023-04-25T10:12:03;15.70;61.20
4209;DHT22;36320;48.860;2.380;2023-04-25T10:14:31;16.20;61.30
4209;DHT22;36320;48.860;2.380;2023-04-25T10:16:58;16.20;60.90
4209;DHT22;36320;48.860;2.380;2023-04-25T10:19:25;16.40;60.60
4209;DHT22;36320;48.860;2.380;2023-04-25T10:24:37;16.10;60.40
4209;DHT22;36320;48.860;2.380;2023-04-25T10:27:04;15.90;60.00
4209;DHT22;36320;48.860;2.380;2023-04-25T10:29:31;15.90;60.20
4209;DHT22;36320;48.860;2.380;2023-04-25T10:31:57;16.10;60.00
4209;DHT22;36320;48.860;2.380;2023-04-25T10:34:49;16.00;59.50
4209;DHT22;36320;48.860;2.380;2023-04-25T10:37:14;16.20;59.40
4209;DHT22;36320;48.860;2.380;2023-04-25T10:39:41;16.10;59.30
4209;DHT22;36320;48.860;2.380;2023-04-25T10:42:07;16.50;59.60
4209;DHT22;36320;48.860;2.380;2023-04-25T10:44:34;16.50;59.10
4209;DHT22;36320;48.860;2.380;2023-04-25T10:47:01;16.60;58.90
4209;DHT22;36320;48.860;2.380;2023-04-25T10:49:41;16.10;58.90
4209;DHT22;36320;48.860;2.380;2023-04-25T10:52:17;16.10;59.30
4209;DHT22;36320;48.860;2.380;2023-04-25T10:54:53;16.00;59.20
4209;DHT22;36320;48.860;2.380;2023-04-25T10:57:32;15.70;59.20
4209;DHT22;36320;48.860;2.380;2023-04-25T11:02:40;15.60;59.00
4209;DHT22;36320;48.860;2.380;2023-04-25T11:05:06;15.80;59.00
4209;DHT22;36320;48.860;2.380;2023-04-25T11:07:52;15.90;58.40
4209;DHT22;36320;48.860;2.380;2023-04-25T11:10:20;16.30;58.20
4209;DHT22;36320;48.860;2.380;2023-04-25T11:12:46;16.70;57.50
4209;DHT22;36320;48.860;2.380;2023-04-25T11:15:13;17.10;57.00
4209;DHT22;36320;48.860;2.380;2023-04-25T11:17:39;16.90;56.20
4209;DHT22;36320;48.860;2.380;2023-04-25T11:20:07;16.80;56.70
4209;DHT22;36320;48.860;2.380;2023-04-25T11:22:38;16.90;56.40
4209;DHT22;36320;48.860;2.380;2023-04-25T11:25:12;17.00;56.70
4209;DHT22;36320;48.860;2.380;2023-04-25T11:27:58;17.20;56.20
4209;DHT22;36320;48.860;2.380;2023-04-25T11:30:26;17.40;55.60
4209;DHT22;36320;48.860;2.380;2023-04-25T11:32:52;17.90;55.20
4209;DHT22;36320;48.860;2.380;2023-04-25T11:35:19;18.00;54.40
4209;DHT22;36320;48.860;2.380;2023-04-25T11:37:46;18.20;53.90
4209;DHT22;36320;48.860;2.380;2023-04-25T11:40:12;18.10;53.60
4209;DHT22;36320;48.860;2.380;2023-04-25T11:42:39;16.90;52.60
4209;DHT22;36320;48.860;2.380;2023-04-25T11:45:06;17.40;53.20
4209;DHT22;36320;48.860;2.380;2023-04-25T11:47:33;16.80;53.90
4209;DHT22;36320;48.860;2.380;2023-04-25T11:50:00;16.80;54.20
4209;DHT22;36320;48.860;2.380;2023-04-25T11:52:38;17.00;54.20
4209;DHT22;36320;48.860;2.380;2023-04-25T11:55:06;16.60;53.90
4209;DHT22;36320;48.860;2.380;2023-04-25T11:57:33;16.40;54.00
4209;DHT22;36320;48.860;2.380;2023-04-25T12:00:10;16.40;54.00
4209;DHT22;36320;48.860;2.380;2023-04-25T12:02:44;16.90;54.10
4209;DHT22;36320;48.860;2.380;2023-04-25T12:05:11;16.90;53.40
4209;DHT22;36320;48.860;2.380;2023-04-25T12:07:37;17.30;53.70
4209;DHT22;36320;48.860;2.380;2023-04-25T12:10:21;17.10;52.90
4209;DHT22;36320;48.860;2.380;2023-04-25T12:12:49;16.20;53.70
4209;DHT22;36320;48.860;2.380;2023-04-25T12:15:33;16.40;54.50
4209;DHT22;36320;48.860;2.380;2023-04-25T12:18:01;16.40;54.50
4209;DHT22;36320;48.860;2.380;2023-04-25T12:20:27;16.30;54.70
4209;DHT22;36320;48.860;2.380;2023-04-25T12:22:53;16.30;55.00
4209;DHT22;36320;48.860;2.380;2023-04-25T12:25:37;16.30;55.00
4209;DHT22;36320;48.860;2.380;2023-04-25T12:28:14;16.50;55.30
4209;DHT22;36320;48.860;2.380;2023-04-25T12:31:03;16.50;55.00
4209;DHT22;36320;48.860;2.380;2023-04-25T12:33:37;16.60;54.90
4209;DHT22;36320;48.860;2.380;2023-04-25T12:36:04;16.20;54.60
4209;DHT22;36320;48.860;2.380;2023-04-25T12:38:40;16.10;54.90
4209;DHT22;36320;48.860;2.380;2023-04-25T12:41:06;16.30;55.00
4209;DHT22;36320;48.860;2.380;2023-04-25T12:43:32;16.30;54.50
4209;DHT22;36320;48.860;2.380;2023-04-25T12:45:59;16.60;54.60
4209;DHT22;36320;48.860;2.380;2023-04-25T12:48:25;16.90;54.40
4209;DHT22;36320;48.860;2.380;2023-04-25T12:50:51;17.00;53.90
4209;DHT22;36320;48.860;2.380;2023-04-25T12:53:21;17.40;54.10
4209;DHT22;36320;48.860;2.380;2023-04-25T12:55:47;17.80;53.70
4209;DHT22;36320;48.860;2.380;2023-04-25T12:58:14;18.30;53.20
4209;DHT22;36320;48.860;2.380;2023-04-25T13:00:41;17.60;52.30
4209;DHT22;36320;48.860;2.380;2023-04-25T13:03:08;17.40;52.50
4209;DHT22;36320;48.860;2.380;2023-04-25T13:05:34;17.50;52.30
4209;DHT22;36320;48.860;2.380;2023-04-25T13:08:00;17.90;52.30
4209;DHT22;36320;48.860;2.380;2023-04-25T13:10:25;18.50;51.80
4209;DHT22;36320;48.860;2.380;2023-04-25T13:12:51;19.00;51.30
4209;DHT22;36320;48.860;2.380;2023-04-25T13:15:17;19.30;50.70
4209;DHT22;36320;48.860;2.380;2023-04-25T13:17:43;19.40;50.30
4209;DHT22;36320;48.860;2.380;2023-04-25T13:20:09;19.10;49.80
4209;DHT22;36320;48.860;2.380;2023-04-25T13:22:36;19.40;49.90
4209;DHT22;36320;48.860;2.380;2023-04-25T13:25:03;19.40;49.50
4209;DHT22;36320;48.860;2.380;2023-04-25T13:27:29;19.30;48.80
4209;DHT22;36320;48.860;2.380;2023-04-25T13:29:58;19.40;48.90
4209;DHT22;36320;48.860;2.380;2023-04-25T13:32:23;19.60;48.60
4209;DHT22;36320;48.860;2.380;2023-04-25T13:34:50;19.20;47.70
4209;DHT22;36320;48.860;2.380;2023-04-25T13:37:16;18.70;48.00
4209;DHT22;36320;48.860;2.380;2023-04-25T13:39:41;18.60;48.00
4209;DHT22;36320;48.860;2.380;2023-04-25T13:42:07;18.40;47.90
4209;DHT22;36320;48.860;2.380;2023-04-25T13:44:33;18.40;47.70
4209;DHT22;36320;48.860;2.380;2023-04-25T13:46:58;18.60;47.50
4209;DHT22;36320;48.860;2.380;2023-04-25T13:49:26;18.20;47.00
4209;DHT22;36320;48.860;2.380;2023-04-25T13:51:51;18.00;47.40
4209;DHT22;36320;48.860;2.380;2023-04-25T13:54:17;17.80;47.80
4209;DHT22;36320;48.860;2.380;2023-04-25T13:56:43;17.90;48.00
4209;DHT22;36320;48.860;2.380;2023-04-25T13:59:09;18.00;48.10
4209;DHT22;36320;48.860;2.380;2023-04-25T14:01:35;18.10;47.90
4209;DHT22;36320;48.860;2.380;2023-04-25T14:04:02;18.20;47.90
4209;DHT22;36320;48.860;2.380;2023-04-25T14:06:29;18.30;47.70
4209;DHT22;36320;48.860;2.380;2023-04-25T14:08:56;18.20;47.70
4209;DHT22;36320;48.860;2.380;2023-04-25T14:11:22;18.10;47.90
4209;DHT22;36320;48.860;2.380;2023-04-25T14:13:48;18.10;48.00
4209;DHT22;36320;48.860;2.380;2023-04-25T14:16:15;17.50;48.60
4209;DHT22;36320;48.860;2.380;2023-04-25T14:18:41;17.00;48.60
4209;DHT22;36320;48.860;2.380;2023-04-25T14:21:07;16.90;49.20
4209;DHT22;36320;48.860;2.380;2023-04-25T14:23:33;16.60;49.70
4209;DHT22;36320;48.860;2.380;2023-04-25T14:25:58;16.30;50.00
4209;DHT22;36320;48.860;2.380;2023-04-25T14:28:24;15.90;50.60
4209;DHT22;36320;48.860;2.380;2023-04-25T14:30:50;16.10;51.10
4209;DHT22;36320;48.860;2.380;2023-04-25T14:33:16;16.30;51.00
4209;DHT22;36320;48.860;2.380;2023-04-25T14:35:41;16.40;51.00
4209;DHT22;36320;48.860;2.380;2023-04-25T14:38:08;16.40;50.70
4209;DHT22;36320;48.860;2.380;2023-04-25T14:40:34;16.00;50.30
4209;DHT22;36320;48.860;2.380;2023-04-25T14:43:00;15.80;50.30
4209;DHT22;36320;48.860;2.380;2023-04-25T14:45:25;15.80;50.20
4209;DHT22;36320;48.860;2.380;2023-04-25T14:47:51;16.00;50.20
4209;DHT22;36320;48.860;2.380;2023-04-25T14:50:17;16.20;50.00
4209;DHT22;36320;48.860;2.380;2023-04-25T14:52:43;16.40;49.80
4209;DHT22;36320;48.860;2.380;2023-04-25T14:55:09;16.50;49.50
4209;DHT22;36320;48.860;2.380;2023-04-25T14:57:35;16.60;49.00
4209;DHT22;36320;48.860;2.380;2023-04-25T15:00:03;16.50;48.60
4209;DHT22;36320;48.860;2.380;2023-04-25T15:02:32;16.50;48.70
4209;DHT22;36320;48.860;2.380;2023-04-25T15:04:58;16.80;48.90
4209;DHT22;36320;48.860;2.380;2023-04-25T15:07:23;16.70;48.70
4209;DHT22;36320;48.860;2.380;2023-04-25T15:09:50;16.80;48.50
4209;DHT22;36320;48.860;2.380;2023-04-25T15:12:16;16.90;48.30
4209;DHT22;36320;48.860;2.380;2023-04-25T15:14:42;17.00;48.30
4209;DHT22;36320;48.860;2.380;2023-04-25T15:17:08;17.10;48.40
4209;DHT22;36320;48.860;2.380;2023-04-25T15:19:34;16.90;48.90
4209;DHT22;36320;48.860;2.380;2023-04-25T15:21:59;16.80;48.50
4209;DHT22;36320;48.860;2.380;2023-04-25T15:24:29;17.00;48.60
4209;DHT22;36320;48.860;2.380;2023-04-25T15:26:55;17.50;48.60
4209;DHT22;36320;48.860;2.380;2023-04-25T15:29:22;17.90;48.20
4209;DHT22;36320;48.860;2.380;2023-04-25T15:31:47;18.40;48.00
4209;DHT22;36320;48.860;2.380;2023-04-25T15:34:13;19.00;47.40
4209;DHT22;36320;48.860;2.380;2023-04-25T15:36:39;19.70;47.00
4209;DHT22;36320;48.860;2.380;2023-04-25T15:39:05;19.90;45.70
4209;DHT22;36320;48.860;2.380;2023-04-25T15:41:30;19.80;45.20
4209;DHT22;36320;48.860;2.380;2023-04-25T15:43:59;19.50;45.20
4209;DHT22;36320;48.860;2.380;2023-04-25T15:46:25;22.20;45.30
4209;DHT22;36320;48.860;2.380;2023-04-25T15:48:51;28.20;40.70
4209;DHT22;36320;48.860;2.380;2023-04-25T15:51:17;30.80;35.00
4209;DHT22;36320;48.860;2.380;2023-04-25T15:53:42;30.70;33.10
4209;DHT22;36320;48.860;2.380;2023-04-25T15:56:08;28.20;32.90